createdAt,value
2023-03-23T07:19:09.255Z,77.28
2023-03-23T07:19:20.331Z,77.48
2023-03-23T07:19:30.325Z,77.28
2023-03-23T07:19:40.513Z,76.84
2023-03-23T07:19:50.576Z,77.01
2023-03-23T07:20:00.749Z,76.64
2023-03-23T07:20:10.840Z,77.95
2023-03-23T07:20:21.079Z,78.87
2023-03-23T07:20:31.052Z,79.38
2023-03-23T07:20:41.223Z,79.27
2023-03-23T07:20:51.303Z,80.08
2023-03-23T07:21:01.500Z,80.29
2023-03-23T07:21:11.563Z,79.98
2023-03-23T07:21:21.733Z,79.47
2023-03-23T07:21:31.852Z,79.88
2023-03-23T07:21:41.939Z,80.29
2023-03-23T07:21:52.065Z,80.69
2023-03-23T07:22:02.221Z,80.79
2023-03-23T07:22:12.358Z,80.69
2023-03-23T07:22:24.214Z,80.69
2023-03-23T07:22:32.519Z,80.63
2023-03-23T07:22:42.712Z,80.32
2023-03-23T07:22:52.814Z,80.93
2023-03-23T07:23:02.932Z,80.83
2023-03-23T07:23:13.129Z,81.04
2023-03-23T07:23:24.035Z,81.54
2023-03-23T07:23:33.248Z,81.24
2023-03-23T07:23:43.382Z,80.53
2023-03-23T07:23:53.653Z,80.43
2023-03-23T07:24:03.680Z,80.63
2023-03-23T07:24:13.783Z,80.83
2023-03-23T07:24:34.032Z,80.93
2023-03-23T07:24:44.178Z,79.51
2023-03-23T07:24:54.236Z,79.92
2023-03-23T07:25:04.494Z,80.12
2023-03-23T07:25:14.600Z,80.53
2023-03-23T07:25:24.743Z,80.97
2023-03-23T07:25:34.830Z,81.24
2023-03-23T07:25:45.014Z,80.93
2023-03-23T07:25:55.138Z,81.24
2023-03-23T07:26:05.191Z,81.54
2023-03-23T07:26:15.336Z,82.05
2023-03-23T07:26:25.535Z,82.05
2023-03-23T07:26:35.671Z,82.15
2023-03-23T07:26:45.831Z,81.95
2023-03-23T07:26:55.970Z,81.04
2023-03-23T07:27:06.063Z,80.22
2023-03-23T07:27:16.190Z,80.32
2023-03-23T07:27:26.365Z,80.32
2023-03-23T07:27:36.448Z,81.24
2023-03-23T07:27:46.598Z,81.44
2023-03-23T07:27:56.678Z,81.85
2023-03-23T07:28:06.816Z,81.85
2023-03-23T07:28:16.828Z,81.50
2023-03-23T07:28:26.980Z,80.90
2023-03-23T07:28:37.146Z,79.92
2023-03-23T07:28:47.313Z,79.38
2023-03-23T07:28:58.004Z,79.68
2023-03-23T07:29:07.463Z,79.98
2023-03-23T07:29:17.700Z,79.88
2023-03-23T07:29:27.819Z,79.54
2023-03-23T07:29:38.235Z,78.26
2023-03-23T07:29:48.998Z,77.45
2023-03-23T07:29:58.868Z,77.95
2023-03-23T07:30:08.444Z,77.95
2023-03-23T07:30:19.429Z,78.16
2023-03-23T07:30:29.676Z,78.26
2023-03-23T07:30:38.656Z,78.77
2023-03-23T07:30:59.520Z,80.02
2023-03-23T07:31:09.068Z,80.12
2023-03-23T07:31:19.128Z,80.32
2023-03-23T07:31:29.859Z,80.43
2023-03-23T07:31:39.377Z,80.53
2023-03-23T07:31:49.501Z,80.22
2023-03-23T07:31:59.695Z,80.43
2023-03-23T07:32:10.362Z,80.66
2023-03-23T07:32:19.857Z,80.36
2023-03-23T07:32:29.949Z,80.97
2023-03-23T07:32:40.006Z,81.38
2023-03-23T07:32:50.242Z,82.03
2023-03-23T07:33:00.365Z,81.21
2023-03-23T07:33:10.358Z,80.30
2023-03-23T07:33:20.503Z,80.71
2023-03-23T07:33:30.751Z,80.71
2023-03-23T07:33:40.979Z,81.11
2023-03-23T07:33:51.083Z,81.82
2023-03-23T07:34:01.012Z,82.23
2023-03-23T07:34:11.115Z,83.31
2023-03-23T07:34:21.205Z,83.61
2023-03-23T07:34:31.353Z,81.99
2023-03-23T07:34:41.475Z,81.99
2023-03-23T07:34:51.635Z,82.15
2023-03-23T07:35:01.705Z,81.13
2023-03-23T07:35:12.856Z,80.12
2023-03-23T07:35:22.259Z,80.02
2023-03-23T07:35:32.379Z,80.02
2023-03-23T07:35:42.654Z,79.82
2023-03-23T07:35:52.656Z,80.02
2023-03-23T07:36:02.748Z,80.46
2023-03-23T07:36:12.878Z,80.77
2023-03-23T07:36:22.997Z,80.66
2023-03-23T07:36:33.236Z,80.77
2023-03-23T07:36:43.250Z,81.68
2023-03-23T07:36:53.484Z,82.29
2023-03-23T07:37:03.590Z,82.19
2023-03-23T07:37:13.718Z,82.50
2023-03-23T07:37:23.849Z,82.84
2023-03-23T07:37:33.901Z,82.43
2023-03-23T07:37:44.070Z,81.82
2023-03-23T07:37:54.123Z,82.23
2023-03-23T07:38:05.211Z,82.84
2023-03-23T07:38:14.754Z,83.34
2023-03-23T07:38:24.900Z,82.53
2023-03-23T07:38:35.026Z,81.92
2023-03-23T07:38:45.072Z,82.73
2023-03-23T07:38:55.221Z,83.45
2023-03-23T07:39:05.445Z,83.95
2023-03-23T07:39:15.548Z,83.54
2023-03-23T07:39:25.660Z,82.98
2023-03-23T07:39:37.171Z,82.67
2023-03-23T07:39:45.937Z,82.47
2023-03-23T07:39:56.983Z,82.06
2023-03-23T07:40:06.223Z,81.86
2023-03-23T07:40:16.504Z,82.37
2023-03-23T07:40:26.494Z,82.98
2023-03-23T07:40:36.713Z,83.18
2023-03-23T07:40:46.799Z,82.78
2023-03-23T07:40:57.001Z,82.57
2023-03-23T07:41:07.130Z,83.08
2023-03-23T07:41:17.302Z,83.38
2023-03-23T07:41:27.301Z,83.89
2023-03-23T07:41:37.554Z,84.40
2023-03-23T07:41:47.597Z,85.01
2023-03-23T07:41:57.718Z,84.77
2023-03-23T07:42:07.755Z,84.80
2023-03-23T07:42:17.950Z,84.70
2023-03-23T07:42:28.032Z,84.09
2023-03-23T07:42:38.183Z,82.98
2023-03-23T07:42:48.229Z,82.31
2023-03-23T07:42:58.501Z,82.10
2023-03-23T07:43:08.507Z,82.81
2023-03-23T07:43:18.707Z,83.73
2023-03-23T07:43:28.791Z,84.54
2023-03-23T07:43:38.933Z,85.01
2023-03-23T07:43:49.064Z,85.01
2023-03-23T07:43:59.374Z,84.91
2023-03-23T07:44:09.440Z,85.01
2023-03-23T07:44:20.371Z,84.70
2023-03-23T07:44:29.650Z,84.30
2023-03-23T07:44:39.718Z,84.20
2023-03-23T07:44:49.796Z,84.50
2023-03-23T07:45:00.045Z,84.91
2023-03-23T07:45:10.025Z,83.95
2023-03-23T07:45:30.378Z,81.72
2023-03-23T07:45:40.457Z,81.21
2023-03-23T07:45:50.678Z,81.05
2023-03-23T07:46:00.661Z,81.21
2023-03-23T07:46:10.794Z,81.21
2023-03-23T07:46:20.847Z,81.82
2023-03-23T07:46:30.954Z,82.56
2023-03-23T07:46:41.030Z,83.12
2023-03-23T07:46:51.131Z,82.01
2023-03-23T07:47:01.232Z,79.85
2023-03-23T07:47:11.276Z,78.49
2023-03-23T07:47:22.580Z,77.58
2023-03-23T07:47:39.858Z,77.37
2023-03-23T07:47:45.729Z,77.21
2023-03-23T07:47:56.047Z,76.09
2023-03-23T07:48:12.729Z,75.82
2023-03-23T07:48:21.873Z,76.17
2023-03-23T07:48:27.883Z,76.87
2023-03-23T07:48:48.182Z,77.42
2023-03-23T07:48:58.255Z,77.72
2023-03-23T07:49:08.351Z,78.17
2023-03-23T07:49:18.542Z,78.67
2023-03-23T07:49:28.642Z,79.28
2023-03-23T07:49:40.600Z,79.59
2023-03-23T07:49:49.150Z,79.99
2023-03-23T07:49:59.475Z,80.36
2023-03-23T07:50:09.439Z,80.63
2023-03-23T07:50:19.618Z,80.19
2023-03-23T07:50:29.601Z,78.49
2023-03-23T07:50:49.880Z,75.99
2023-03-23T07:51:00.035Z,74.94
2023-03-23T07:51:10.154Z,73.83
2023-03-23T07:51:20.330Z,73.22
2023-03-23T07:51:30.375Z,72.75
2023-03-23T07:51:40.545Z,72.21
2023-03-23T07:51:50.655Z,71.60
2023-03-23T07:52:00.790Z,71.20
2023-03-23T07:52:10.870Z,70.79
2023-03-23T07:52:21.109Z,70.83
2023-03-23T07:52:31.130Z,71.26
2023-03-23T07:52:41.180Z,71.60
2023-03-23T07:52:51.334Z,71.70
2023-03-23T07:53:01.565Z,72.14
2023-03-23T07:53:11.698Z,72.78
2023-03-23T07:53:21.989Z,73.96
2023-03-23T07:53:31.992Z,74.16
2023-03-23T07:53:42.101Z,74.20
2023-03-23T07:53:52.170Z,74.20
2023-03-23T07:54:02.886Z,74.44
2023-03-23T07:54:12.468Z,74.84
2023-03-23T07:54:22.761Z,75.15
2023-03-23T07:54:33.372Z,75.49
2023-03-23T07:54:42.965Z,75.89
2023-03-23T07:54:52.936Z,75.89
2023-03-23T07:55:03.222Z,75.82
2023-03-23T07:55:13.467Z,75.93
2023-03-23T07:55:23.461Z,76.23
2023-03-23T07:55:33.588Z,76.33
2023-03-23T07:55:43.925Z,76.74
2023-03-23T07:55:53.829Z,76.84
2023-03-23T07:56:04.037Z,76.74
2023-03-23T07:56:14.215Z,76.94
2023-03-23T07:56:24.191Z,77.04
2023-03-23T07:56:34.447Z,77.25
2023-03-23T07:56:44.595Z,77.14
2023-03-23T07:56:54.619Z,77.08
2023-03-23T07:57:04.996Z,76.98
2023-03-23T07:57:14.856Z,77.08
2023-03-23T07:57:24.969Z,77.25
2023-03-23T07:57:35.050Z,76.90
2023-03-23T07:57:45.212Z,77.07
2023-03-23T07:57:55.261Z,76.43
2023-03-23T07:58:05.427Z,75.89
2023-03-23T07:58:15.474Z,76.59
2023-03-23T07:58:25.673Z,77.71
2023-03-23T07:58:35.772Z,78.01
2023-03-23T07:58:45.918Z,78.99
2023-03-23T07:58:56.000Z,79.79
2023-03-23T07:59:06.219Z,80.30
2023-03-23T07:59:16.242Z,77.77
2023-03-23T07:59:26.401Z,76.56
2023-03-23T07:59:36.468Z,75.24
2023-03-23T07:59:46.726Z,75.81
2023-03-23T07:59:56.866Z,74.90
2023-03-23T08:00:06.976Z,74.10
2023-03-23T08:00:17.056Z,74.97
2023-03-23T08:00:27.359Z,74.16
2023-03-23T08:00:37.309Z,73.66
2023-03-23T08:00:47.587Z,74.57
2023-03-23T08:00:57.654Z,75.13
2023-03-23T08:01:07.838Z,75.54
2023-03-23T08:01:17.828Z,75.44
2023-03-23T08:01:27.995Z,74.09
2023-03-23T08:01:38.221Z,73.49
2023-03-23T08:01:48.299Z,73.38
2023-03-23T08:01:58.437Z,72.95
2023-03-23T08:02:08.686Z,72.14
2023-03-23T08:02:18.614Z,71.94
2023-03-23T08:02:29.994Z,71.64
2023-03-23T08:02:40.845Z,70.62
2023-03-23T08:02:50.631Z,70.19
2023-03-23T08:03:00.754Z,68.88
2023-03-23T08:03:10.926Z,68.14
2023-03-23T08:03:21.105Z,67.30
2023-03-23T08:03:31.097Z,66.76
2023-03-23T08:04:46.021Z,68.30
2023-03-23T08:04:56.819Z,68.51
2023-03-23T08:05:06.756Z,68.71
2023-03-23T08:05:16.908Z,68.81
2023-03-23T08:05:26.956Z,69.04
2023-03-23T08:05:37.311Z,69.48
2023-03-23T08:05:47.331Z,70.12
2023-03-23T08:05:57.449Z,70.53
2023-03-23T08:06:07.483Z,71.06
2023-03-23T08:06:17.672Z,71.50
2023-03-23T08:06:27.909Z,71.94
2023-03-23T08:06:38.046Z,72.55
2023-03-23T08:06:48.042Z,73.09
2023-03-23T08:06:59.017Z,73.80
2023-03-23T08:07:08.245Z,74.44
2023-03-23T08:07:19.874Z,74.95
2023-03-23T08:07:28.454Z,75.35
2023-03-23T08:07:38.585Z,75.99
2023-03-23T08:07:48.781Z,76.29
2023-03-23T08:08:09.083Z,77.01
2023-03-23T08:08:19.185Z,77.11
2023-03-23T08:08:29.247Z,77.14
2023-03-23T08:08:39.488Z,77.14
2023-03-23T08:08:49.603Z,76.94
2023-03-23T08:08:59.815Z,77.04
2023-03-23T08:09:09.810Z,77.14
2023-03-23T08:09:20.057Z,77.14
2023-03-23T08:09:30.169Z,77.14
2023-03-23T08:09:40.259Z,77.45
2023-03-23T08:09:50.298Z,77.69
2023-03-23T08:10:00.471Z,77.89
2023-03-23T08:10:10.622Z,78.09
2023-03-23T08:10:20.631Z,77.99
2023-03-23T08:10:30.735Z,77.89
2023-03-23T08:10:41.029Z,77.79
2023-03-23T08:10:53.421Z,77.79
2023-03-23T08:11:01.363Z,77.89
2023-03-23T08:11:11.475Z,78.13
2023-03-23T08:11:21.698Z,78.33
2023-03-23T08:11:31.890Z,78.44
2023-03-23T08:11:41.884Z,78.74
2023-03-23T08:12:02.188Z,79.55
2023-03-23T08:12:12.274Z,79.35
2023-03-23T08:12:22.446Z,79.35
2023-03-23T08:12:32.576Z,79.35
2023-03-23T08:12:42.650Z,79.35
2023-03-23T08:12:52.742Z,79.25
2023-03-23T08:13:02.932Z,79.45
2023-03-23T08:13:12.905Z,79.65
2023-03-23T08:13:23.148Z,79.96
2023-03-23T08:13:33.175Z,80.06
2023-03-23T08:13:43.300Z,79.96
2023-03-23T08:13:53.372Z,79.85
2023-03-23T08:14:03.539Z,79.75
2023-03-23T08:14:14.560Z,79.85
2023-03-23T08:14:23.867Z,80.06
2023-03-23T08:14:34.004Z,80.46
2023-03-23T08:14:44.150Z,80.29
2023-03-23T08:14:54.250Z,79.17
2023-03-23T08:15:04.501Z,78.46
2023-03-23T08:15:14.450Z,78.26
2023-03-23T08:15:24.642Z,78.26
2023-03-23T08:15:34.679Z,78.16
2023-03-23T08:15:44.890Z,78.36
2023-03-23T08:15:54.959Z,78.50
2023-03-23T08:16:05.159Z,78.40
2023-03-23T08:16:15.253Z,78.60
2023-03-23T08:16:25.544Z,78.91
2023-03-23T08:16:35.587Z,79.21
2023-03-23T08:16:45.815Z,79.31
2023-03-23T08:16:56.003Z,79.35
2023-03-23T08:17:05.979Z,79.35
2023-03-23T08:17:16.174Z,79.65
2023-03-23T08:17:26.221Z,79.96
2023-03-23T08:17:36.374Z,80.06
2023-03-23T08:17:46.475Z,80.06
2023-03-23T08:17:56.593Z,80.30
2023-03-23T08:18:06.672Z,80.46
2023-03-23T08:18:16.761Z,80.80
2023-03-23T08:18:26.960Z,81.11
2023-03-23T08:18:37.033Z,81.11
2023-03-23T08:18:47.208Z,81.11
2023-03-23T08:18:57.307Z,81.21
2023-03-23T08:19:14.034Z,81.41
2023-03-23T08:19:19.942Z,81.41
2023-03-23T08:19:30.080Z,81.52
2023-03-23T08:19:40.155Z,81.62
2023-03-23T08:19:50.354Z,81.76
2023-03-23T08:20:00.493Z,81.96
2023-03-23T08:20:20.689Z,82.06
2023-03-23T08:20:30.849Z,82.17
2023-03-23T08:20:40.894Z,82.26
2023-03-23T08:20:52.240Z,82.47
2023-03-23T08:21:01.143Z,82.57
2023-03-23T08:21:11.248Z,82.47
2023-03-23T08:21:21.347Z,82.26
2023-03-23T08:21:31.578Z,82.37
2023-03-23T08:21:41.605Z,82.37
